sensor_id;sensor_type;location;lat;lon;timestamp;temperature;humidity
75799;DHT22;70933;44.692;37.776;2023-07-28T00:00:58;27.84;29.76
75799;DHT22;70933;44.692;37.776;2023-07-28T00:01:59;27.83;29.66
75799;DHT22;70933;44.692;37.776;2023-07-28T00:03:01;27.83;29.56
75799;DHT22;70933;44.692;37.776;2023-07-28T00:04:03;27.83;29.57
75799;DHT22;70933;44.692;37.776;2023-07-28T00:05:08;27.82;29.42
75799;DHT22;70933;44.692;37.776;2023-07-28T00:06:10;27.81;29.33
75799;DHT22;70933;44.692;37.776;2023-07-28T00:07:12;27.81;29.35
75799;DHT22;70933;44.692;37.776;2023-07-28T00:08:14;27.81;29.24
75799;DHT22;70933;44.692;37.776;2023-07-28T00:09:15;27.80;29.22
75799;DHT22;70933;44.692;37.776;2023-07-28T00:10:17;27.79;29.20
75799;DHT22;70933;44.692;37.776;2023-07-28T00:11:19;27.79;29.25
75799;DHT22;70933;44.692;37.776;2023-07-28T00:12:21;27.79;29.19
75799;DHT22;70933;44.692;37.776;2023-07-28T00:13:23;27.78;29.18
75799;DHT22;70933;44.692;37.776;2023-07-28T00:14:26;27.79;29.10
75799;DHT22;70933;44.692;37.776;2023-07-28T00:15:28;27.79;29.33
75799;DHT22;70933;44.692;37.776;2023-07-28T00:16:30;27.80;30.38
75799;DHT22;70933;44.692;37.776;2023-07-28T00:17:32;27.80;31.29
75799;DHT22;70933;44.692;37.776;2023-07-28T00:18:33;27.83;32.93
75799;DHT22;70933;44.692;37.776;2023-07-28T00:19:35;27.82;32.44
75799;DHT22;70933;44.692;37.776;2023-07-28T00:20:37;27.84;32.44
75799;DHT22;70933;44.692;37.776;2023-07-28T00:21:39;27.85;32.54
75799;DHT22;70933;44.692;37.776;2023-07-28T00:22:41;27.83;32.29
75799;DHT22;70933;44.692;37.776;2023-07-28T00:23:42;27.83;32.33
75799;DHT22;70933;44.692;37.776;2023-07-28T00:24:44;27.83;32.04
75799;DHT22;70933;44.692;37.776;2023-07-28T00:25:46;27.82;31.91
75799;DHT22;70933;44.692;37.776;2023-07-28T00:26:48;27.83;31.76
75799;DHT22;70933;44.692;37.776;2023-07-28T00:27:50;27.83;31.83
75799;DHT22;70933;44.692;37.776;2023-07-28T00:28:52;27.82;31.73
75799;DHT22;70933;44.692;37.776;2023-07-28T00:29:53;27.80;31.67
75799;DHT22;70933;44.692;37.776;2023-07-28T00:30:57;27.80;31.56
75799;DHT22;70933;44.692;37.776;2023-07-28T00:31:59;27.78;31.54
75799;DHT22;70933;44.692;37.776;2023-07-28T00:33:00;27.80;32.44
75799;DHT22;70933;44.692;37.776;2023-07-28T00:34:02;27.81;33.76
75799;DHT22;70933;44.692;37.776;2023-07-28T00:35:05;27.82;35.53
75799;DHT22;70933;44.692;37.776;2023-07-28T00:36:08;27.85;34.99
75799;DHT22;70933;44.692;37.776;2023-07-28T00:37:09;27.85;34.59
75799;DHT22;70933;44.692;37.776;2023-07-28T00:38:11;27.84;33.98
75799;DHT22;70933;44.692;37.776;2023-07-28T00:39:13;27.86;33.50
75799;DHT22;70933;44.692;37.776;2023-07-28T00:40:15;27.86;33.15
75799;DHT22;70933;44.692;37.776;2023-07-28T00:41:17;27.84;32.72
75799;DHT22;70933;44.692;37.776;2023-07-28T00:42:19;27.83;32.39
75799;DHT22;70933;44.692;37.776;2023-07-28T00:43:21;27.83;32.19
75799;DHT22;70933;44.692;37.776;2023-07-28T00:44:23;27.83;32.06
75799;DHT22;70933;44.692;37.776;2023-07-28T00:45:25;27.82;32.19
75799;DHT22;70933;44.692;37.776;2023-07-28T00:46:27;27.83;31.96
75799;DHT22;70933;44.692;37.776;2023-07-28T00:47:29;27.82;31.67
75799;DHT22;70933;44.692;37.776;2023-07-28T00:48:31;27.82;31.40
75799;DHT22;70933;44.692;37.776;2023-07-28T00:49:33;27.81;31.14
75799;DHT22;70933;44.692;37.776;2023-07-28T00:50:35;27.81;30.82
75799;DHT22;70933;44.692;37.776;2023-07-28T00:51:38;27.80;30.64
75799;DHT22;70933;44.692;37.776;2023-07-28T00:52:40;27.80;30.29
75799;DHT22;70933;44.692;37.776;2023-07-28T00:53:43;27.79;30.16
75799;DHT22;70933;44.692;37.776;2023-07-28T00:54:45;27.80;29.97
75799;DHT22;70933;44.692;37.776;2023-07-28T00:55:46;27.78;30.19
75799;DHT22;70933;44.692;37.776;2023-07-28T00:56:49;27.79;31.13
75799;DHT22;70933;44.692;37.776;2023-07-28T00:57:52;27.81;32.25
75799;DHT22;70933;44.692;37.776;2023-07-28T00:58:54;27.81;32.12
75799;DHT22;70933;44.692;37.776;2023-07-28T00:59:56;27.83;31.49
75799;DHT22;70933;44.692;37.776;2023-07-28T01:00:58;27.83;30.98
75799;DHT22;70933;44.692;37.776;2023-07-28T01:02:00;27.83;30.46
75799;DHT22;70933;44.692;37.776;2023-07-28T01:03:02;27.82;30.11
75799;DHT22;70933;44.692;37.776;2023-07-28T01:04:05;27.82;29.68
75799;DHT22;70933;44.692;37.776;2023-07-28T01:05:07;27.81;29.37
75799;DHT22;70933;44.692;37.776;2023-07-28T01:07:30;27.80;29.11
75799;DHT22;70933;44.692;37.776;2023-07-28T01:10:02;27.78;28.68
75799;DHT22;70933;44.692;37.776;2023-07-28T01:11:07;27.78;28.51
75799;DHT22;70933;44.692;37.776;2023-07-28T01:12:09;27.78;28.48
75799;DHT22;70933;44.692;37.776;2023-07-28T01:13:11;27.76;28.26
75799;DHT22;70933;44.692;37.776;2023-07-28T01:14:12;27.78;28.17
75799;DHT22;70933;44.692;37.776;2023-07-28T01:15:14;27.75;28.00
75799;DHT22;70933;44.692;37.776;2023-07-28T01:16:16;27.75;27.99
75799;DHT22;70933;44.692;37.776;2023-07-28T01:17:19;27.76;27.87
75799;DHT22;70933;44.692;37.776;2023-07-28T01:18:21;27.75;28.27
75799;DHT22;70933;44.692;37.776;2023-07-28T01:19:23;27.74;29.25
75799;DHT22;70933;44.692;37.776;2023-07-28T01:20:29;27.78;30.66
75799;DHT22;70933;44.692;37.776;2023-07-28T01:21:33;27.78;30.61
75799;DHT22;70933;44.692;37.776;2023-07-28T01:25:02;27.79;29.36
75799;DHT22;70933;44.692;37.776;2023-07-28T01:26:10;27.78;29.09
75799;DHT22;70933;44.692;37.776;2023-07-28T01:27:13;27.80;28.81
75799;DHT22;70933;44.692;37.776;2023-07-28T01:28:18;27.79;28.61
75799;DHT22;70933;44.692;37.776;2023-07-28T01:29:21;27.75;28.49
75799;DHT22;70933;44.692;37.776;2023-07-28T01:30:23;27.75;28.43
75799;DHT22;70933;44.692;37.776;2023-07-28T01:31:27;27.75;28.30
75799;DHT22;70933;44.692;37.776;2023-07-28T01:32:29;27.74;28.26
75799;DHT22;70933;44.692;37.776;2023-07-28T01:33:31;27.74;28.30
75799;DHT22;70933;44.692;37.776;2023-07-28T01:34:33;27.73;28.10
75799;DHT22;70933;44.692;37.776;2023-07-28T01:35:38;27.73;28.39
75799;DHT22;70933;44.692;37.776;2023-07-28T01:36:40;27.74;29.71
75799;DHT22;70933;44.692;37.776;2023-07-28T01:37:42;27.75;31.16
75799;DHT22;70933;44.692;37.776;2023-07-28T01:38:43;27.79;31.65
75799;DHT22;70933;44.692;37.776;2023-07-28T01:39:45;27.78;30.89
75799;DHT22;70933;44.692;37.776;2023-07-28T01:40:47;27.79;30.66
75799;DHT22;70933;44.692;37.776;2023-07-28T01:41:49;27.79;30.42
75799;DHT22;70933;44.692;37.776;2023-07-28T01:42:51;27.79;30.07
75799;DHT22;70933;44.692;37.776;2023-07-28T01:43:52;27.78;29.91
75799;DHT22;70933;44.692;37.776;2023-07-28T01:44:57;27.78;29.68
75799;DHT22;70933;44.692;37.776;2023-07-28T01:45:58;27.78;29.55
75799;DHT22;70933;44.692;37.776;2023-07-28T01:47:00;27.79;29.34
75799;DHT22;70933;44.692;37.776;2023-07-28T01:48:02;27.76;29.26
75799;DHT22;70933;44.692;37.776;2023-07-28T01:49:04;27.75;29.04
75799;DHT22;70933;44.692;37.776;2023-07-28T01:50:06;27.74;28.96
75799;DHT22;70933;44.692;37.776;2023-07-28T01:51:08;27.75;28.82
75799;DHT22;70933;44.692;37.776;2023-07-28T01:52:10;27.74;28.69
75799;DHT22;70933;44.692;37.776;2023-07-28T01:53:11;27.75;28.62
75799;DHT22;70933;44.692;37.776;2023-07-28T01:54:13;27.74;29.02
75799;DHT22;70933;44.692;37.776;2023-07-28T01:55:15;27.75;30.07
75799;DHT22;70933;44.692;37.776;2023-07-28T01:56:17;27.79;31.88
75799;DHT22;70933;44.692;37.776;2023-07-28T01:57:18;27.80;32.10
75799;DHT22;70933;44.692;37.776;2023-07-28T01:58:20;27.81;31.54
75799;DHT22;70933;44.692;37.776;2023-07-28T01:59:22;27.81;31.22
75799;DHT22;70933;44.692;37.776;2023-07-28T02:00:24;27.81;30.90
75799;DHT22;70933;44.692;37.776;2023-07-28T02:01:26;27.80;30.54
75799;DHT22;70933;44.692;37.776;2023-07-28T02:02:27;27.80;30.27
75799;DHT22;70933;44.692;37.776;2023-07-28T02:03:30;27.79;30.05
75799;DHT22;70933;44.692;37.776;2023-07-28T02:04:32;27.80;29.74
75799;DHT22;70933;44.692;37.776;2023-07-28T02:05:34;27.79;29.45
75799;DHT22;70933;44.692;37.776;2023-07-28T02:06:36;27.78;29.10
75799;DHT22;70933;44.692;37.776;2023-07-28T02:07:37;27.76;28.89
75799;DHT22;70933;44.692;37.776;2023-07-28T02:08:39;27.76;28.79
75799;DHT22;70933;44.692;37.776;2023-07-28T02:09:41;27.76;29.74
75799;DHT22;70933;44.692;37.776;2023-07-28T02:10:44;27.79;30.97
75799;DHT22;70933;44.692;37.776;2023-07-28T02:11:46;27.81;32.77
75799;DHT22;70933;44.692;37.776;2023-07-28T02:12:48;27.80;32.01
75799;DHT22;70933;44.692;37.776;2023-07-28T02:13:50;27.82;31.64
75799;DHT22;70933;44.692;37.776;2023-07-28T02:14:52;27.81;31.25
75799;DHT22;70933;44.692;37.776;2023-07-28T02:15:54;27.80;30.83
75799;DHT22;70933;44.692;37.776;2023-07-28T02:16:56;27.80;30.67
75799;DHT22;70933;44.692;37.776;2023-07-28T02:18:18;27.79;30.42
75799;DHT22;70933;44.692;37.776;2023-07-28T02:19:19;27.79;30.27
75799;DHT22;70933;44.692;37.776;2023-07-28T02:20:21;27.79;30.04
75799;DHT22;70933;44.692;37.776;2023-07-28T02:21:23;27.78;30.02
75799;DHT22;70933;44.692;37.776;2023-07-28T02:22:24;27.78;29.85
75799;DHT22;70933;44.692;37.776;2023-07-28T02:23:26;27.76;29.91
75799;DHT22;70933;44.692;37.776;2023-07-28T02:24:28;27.76;30.95
75799;DHT22;70933;44.692;37.776;2023-07-28T02:25:30;27.78;32.00
75799;DHT22;70933;44.692;37.776;2023-07-28T02:26:32;27.80;33.50
75799;DHT22;70933;44.692;37.776;2023-07-28T02:27:33;27.82;32.68
75799;DHT22;70933;44.692;37.776;2023-07-28T02:28:35;27.81;32.16
75799;DHT22;70933;44.692;37.776;2023-07-28T02:29:37;27.81;31.73
75799;DHT22;70933;44.692;37.776;2023-07-28T02:30:39;27.82;31.35
75799;DHT22;70933;44.692;37.776;2023-07-28T02:31:42;27.81;31.04
75799;DHT22;70933;44.692;37.776;2023-07-28T02:32:43;27.82;30.70
75799;DHT22;70933;44.692;37.776;2023-07-28T02:33:45;27.80;30.48
75799;DHT22;70933;44.692;37.776;2023-07-28T02:34:47;27.81;30.25
75799;DHT22;70933;44.692;37.776;2023-07-28T02:35:49;27.82;30.06
75799;DHT22;70933;44.692;37.776;2023-07-28T02:36:51;27.80;29.89
75799;DHT22;70933;44.692;37.776;2023-07-28T02:37:52;27.79;29.63
75799;DHT22;70933;44.692;37.776;2023-07-28T02:38:54;27.78;29.44
75799;DHT22;70933;44.692;37.776;2023-07-28T02:39:56;27.78;29.38
75799;DHT22;70933;44.692;37.776;2023-07-28T02:40:58;27.78;29.06
75799;DHT22;70933;44.692;37.776;2023-07-28T02:41:59;27.75;28.99
75799;DHT22;70933;44.692;37.776;2023-07-28T02:43:01;27.75;28.65
75799;DHT22;70933;44.692;37.776;2023-07-28T02:44:03;27.75;28.36
75799;DHT22;70933;44.692;37.776;2023-07-28T02:45:05;27.75;28.30
75799;DHT22;70933;44.692;37.776;2023-07-28T02:46:07;27.75;28.31
75799;DHT22;70933;44.692;37.776;2023-07-28T02:47:09;27.75;29.41
75799;DHT22;70933;44.692;37.776;2023-07-28T02:48:11;27.76;30.29
75799;DHT22;70933;44.692;37.776;2023-07-28T02:49:12;27.78;31.90
75799;DHT22;70933;44.692;37.776;2023-07-28T02:50:15;27.79;31.12
75799;DHT22;70933;44.692;37.776;2023-07-28T02:51:17;27.79;30.80
75799;DHT22;70933;44.692;37.776;2023-07-28T02:52:19;27.80;30.35
75799;DHT22;70933;44.692;37.776;2023-07-28T02:53:21;27.80;30.11
75799;DHT22;70933;44.692;37.776;2023-07-28T02:54:23;27.80;29.92
75799;DHT22;70933;44.692;37.776;2023-07-28T02:55:27;27.78;29.77
75799;DHT22;70933;44.692;37.776;2023-07-28T02:56:29;27.79;29.69
75799;DHT22;70933;44.692;37.776;2023-07-28T02:57:30;27.78;29.50
75799;DHT22;70933;44.692;37.776;2023-07-28T02:58:32;27.76;29.34
75799;DHT22;70933;44.692;37.776;2023-07-28T02:59:34;27.78;29.32
75799;DHT22;70933;44.692;37.776;2023-07-28T03:00:43;27.76;29.16
75799;DHT22;70933;44.692;37.776;2023-07-28T03:01:48;27.76;29.04
75799;DHT22;70933;44.692;37.776;2023-07-28T03:02:53;27.75;28.89
75799;DHT22;70933;44.692;37.776;2023-07-28T03:03:54;27.74;28.70
75799;DHT22;70933;44.692;37.776;2023-07-28T03:04:56;27.75;28.61
75799;DHT22;70933;44.692;37.776;2023-07-28T03:05:58;27.74;28.48
75799;DHT22;70933;44.692;37.776;2023-07-28T03:07:01;27.73;28.39
75799;DHT22;70933;44.692;37.776;2023-07-28T03:08:03;27.73;28.39
75799;DHT22;70933;44.692;37.776;2023-07-28T03:09:05;27.73;29.29
75799;DHT22;70933;44.692;37.776;2023-07-28T03:10:36;27.75;31.35
75799;DHT22;70933;44.692;37.776;2023-07-28T03:11:38;27.76;31.69
75799;DHT22;70933;44.692;37.776;2023-07-28T03:12:39;27.76;31.21
75799;DHT22;70933;44.692;37.776;2023-07-28T03:13:41;27.76;30.80
75799;DHT22;70933;44.692;37.776;2023-07-28T03:14:43;27.78;30.54
75799;DHT22;70933;44.692;37.776;2023-07-28T03:15:45;27.78;30.20
75799;DHT22;70933;44.692;37.776;2023-07-28T03:16:46;27.78;30.09
75799;DHT22;70933;44.692;37.776;2023-07-28T03:17:50;27.76;29.87
75799;DHT22;70933;44.692;37.776;2023-07-28T03:18:52;27.76;29.66
75799;DHT22;70933;44.692;37.776;2023-07-28T03:19:54;27.75;29.34
75799;DHT22;70933;44.692;37.776;2023-07-28T03:20:56;27.75;29.12
75799;DHT22;70933;44.692;37.776;2023-07-28T03:21:57;27.75;28.93
75799;DHT22;70933;44.692;37.776;2023-07-28T03:22:59;27.75;28.73
75799;DHT22;70933;44.692;37.776;2023-07-28T03:24:01;27.73;28.62
75799;DHT22;70933;44.692;37.776;2023-07-28T03:25:03;27.73;28.48
75799;DHT22;70933;44.692;37.776;2023-07-28T03:26:05;27.73;28.31
75799;DHT22;70933;44.692;37.776;2023-07-28T03:27:07;27.72;28.13
75799;DHT22;70933;44.692;37.776;2023-07-28T03:28:10;27.72;28.00
75799;DHT22;70933;44.692;37.776;2023-07-28T03:29:16;27.71;27.93
75799;DHT22;70933;44.692;37.776;2023-07-28T03:30:21;27.71;27.71
75799;DHT22;70933;44.692;37.776;2023-07-28T03:31:22;27.71;27.59
75799;DHT22;70933;44.692;37.776;2023-07-28T03:32:24;27.70;27.50
75799;DHT22;70933;44.692;37.776;2023-07-28T03:33:26;27.69;27.63
75799;DHT22;70933;44.692;37.776;2023-07-28T03:34:28;27.71;28.53
75799;DHT22;70933;44.692;37.776;2023-07-28T03:35:32;27.71;29.75
75799;DHT22;70933;44.692;37.776;2023-07-28T03:36:42;27.73;30.45
75799;DHT22;70933;44.692;37.776;2023-07-28T03:37:44;27.74;29.79
75799;DHT22;70933;44.692;37.776;2023-07-28T03:38:46;27.74;29.46
75799;DHT22;70933;44.692;37.776;2023-07-28T03:39:49;27.75;29.13
75799;DHT22;70933;44.692;37.776;2023-07-28T03:40:52;27.73;28.76
75799;DHT22;70933;44.692;37.776;2023-07-28T03:41:53;27.73;28.62
75799;DHT22;70933;44.692;37.776;2023-07-28T03:42:56;27.73;28.42
75799;DHT22;70933;44.692;37.776;2023-07-28T03:43:58;27.74;28.28
75799;DHT22;70933;44.692;37.776;2023-07-28T03:45:00;27.72;28.19
75799;DHT22;70933;44.692;37.776;2023-07-28T03:46:02;27.73;28.02
75799;DHT22;70933;44.692;37.776;2023-07-28T03:47:04;27.72;27.80
75799;DHT22;70933;44.692;37.776;2023-07-28T03:48:06;27.71;27.55
75799;DHT22;70933;44.692;37.776;2023-07-28T03:49:08;27.71;27.36
75799;DHT22;70933;44.692;37.776;2023-07-28T03:50:10;27.70;27.20
75799;DHT22;70933;44.692;37.776;2023-07-28T03:51:12;27.71;28.19
75799;DHT22;70933;44.692;37.776;2023-07-28T03:52:13;27.72;29.20
75799;DHT22;70933;44.692;37.776;2023-07-28T03:53:15;27.74;30.42
75799;DHT22;70933;44.692;37.776;2023-07-28T03:54:17;27.75;29.61
75799;DHT22;70933;44.692;37.776;2023-07-28T03:55:19;27.75;29.28
75799;DHT22;70933;44.692;37.776;2023-07-28T03:56:20;27.75;29.03
75799;DHT22;70933;44.692;37.776;2023-07-28T03:57:22;27.74;28.71
75799;DHT22;70933;44.692;37.776;2023-07-28T03:58:27;27.75;28.41
75799;DHT22;70933;44.692;37.776;2023-07-28T03:59:28;27.73;28.15
75799;DHT22;70933;44.692;37.776;2023-07-28T04:00:30;27.74;28.00
75799;DHT22;70933;44.692;37.776;2023-07-28T04:01:32;27.73;27.74
75799;DHT22;70933;44.692;37.776;2023-07-28T04:02:34;27.73;27.66
75799;DHT22;70933;44.692;37.776;2023-07-28T04:03:36;27.72;27.69
75799;DHT22;70933;44.692;37.776;2023-07-28T04:04:37;27.72;27.58
75799;DHT22;70933;44.692;37.776;2023-07-28T04:05:42;27.72;27.44
75799;DHT22;70933;44.692;37.776;2023-07-28T04:06:46;27.70;27.38
75799;DHT22;70933;44.692;37.776;2023-07-28T04:07:48;27.72;27.36
75799;DHT22;70933;44.692;37.776;2023-07-28T04:08:50;27.71;27.39
75799;DHT22;70933;44.692;37.776;2023-07-28T04:09:52;27.70;27.31
75799;DHT22;70933;44.692;37.776;2023-07-28T04:10:54;27.70;27.57
75799;DHT22;70933;44.692;37.776;2023-07-28T04:11:56;27.70;27.64
75799;DHT22;70933;44.692;37.776;2023-07-28T04:12:57;27.70;28.80
75799;DHT22;70933;44.692;37.776;2023-07-28T04:13:59;27.72;30.35
75799;DHT22;70933;44.692;37.776;2023-07-28T04:15:01;27.73;31.24
75799;DHT22;70933;44.692;37.776;2023-07-28T04:16:06;27.73;30.48
75799;DHT22;70933;44.692;37.776;2023-07-28T04:17:08;27.75;30.23
75799;DHT22;70933;44.692;37.776;2023-07-28T04:18:11;27.73;30.13
75799;DHT22;70933;44.692;37.776;2023-07-28T04:19:13;27.74;30.09
75799;DHT22;70933;44.692;37.776;2023-07-28T04:20:15;27.73;30.00
75799;DHT22;70933;44.692;37.776;2023-07-28T04:21:17;27.73;29.77
75799;DHT22;70933;44.692;37.776;2023-07-28T04:22:19;27.74;29.58
75799;DHT22;70933;44.692;37.776;2023-07-28T04:23:24;27.73;29.48
75799;DHT22;70933;44.692;37.776;2023-07-28T04:24:26;27.72;29.30
75799;DHT22;70933;44.692;37.776;2023-07-28T04:25:28;27.72;29.19
75799;DHT22;70933;44.692;37.776;2023-07-28T04:26:29;27.71;29.02
75799;DHT22;70933;44.692;37.776;2023-07-28T04:27:36;27.72;28.90
75799;DHT22;70933;44.692;37.776;2023-07-28T04:28:40;27.71;28.77
75799;DHT22;70933;44.692;37.776;2023-07-28T04:29:42;27.71;28.63
75799;DHT22;70933;44.692;37.776;2023-07-28T04:30:46;27.70;28.56
75799;DHT22;70933;44.692;37.776;2023-07-28T04:32:05;27.69;28.28
75799;DHT22;70933;44.692;37.776;2023-07-28T04:33:08;27.71;28.32
75799;DHT22;70933;44.692;37.776;2023-07-28T04:34:13;27.70;28.19
75799;DHT22;70933;44.692;37.776;2023-07-28T04:35:40;27.71;29.12
75799;DHT22;70933;44.692;37.776;2023-07-28T04:36:51;27.71;30.70
75799;DHT22;70933;44.692;37.776;2023-07-28T04:37:58;27.74;31.25
75799;DHT22;70933;44.692;37.776;2023-07-28T04:39:22;27.74;30.47
75799;DHT22;70933;44.692;37.776;2023-07-28T04:40:24;27.73;30.06
75799;DHT22;70933;44.692;37.776;2023-07-28T04:41:26;27.74;29.69
75799;DHT22;70933;44.692;37.776;2023-07-28T04:42:29;27.74;29.92
75799;DHT22;70933;44.692;37.776;2023-07-28T04:43:31;27.73;30.17
75799;DHT22;70933;44.692;37.776;2023-07-28T04:44:33;27.73;30.13
75799;DHT22;70933;44.692;37.776;2023-07-28T04:45:38;27.72;30.13
75799;DHT22;70933;44.692;37.776;2023-07-28T04:46:47;27.72;30.08
75799;DHT22;70933;44.692;37.776;2023-07-28T04:47:51;27.71;29.91
75799;DHT22;70933;44.692;37.776;2023-07-28T04:48:54;27.70;30.04
75799;DHT22;70933;44.692;37.776;2023-07-28T04:50:15;27.71;30.05
75799;DHT22;70933;44.692;37.776;2023-07-28T04:51:40;27.71;30.00
75799;DHT22;70933;44.692;37.776;2023-07-28T04:53:02;27.69;30.05
75799;DHT22;70933;44.692;37.776;2023-07-28T04:54:27;27.69;29.98
75799;DHT22;70933;44.692;37.776;2023-07-28T04:55:29;27.69;29.91
75799;DHT22;70933;44.692;37.776;2023-07-28T04:56:31;27.68;30.17
75799;DHT22;70933;44.692;37.776;2023-07-28T04:57:33;27.67;30.91
75799;DHT22;70933;44.692;37.776;2023-07-28T04:58:35;27.69;32.49
75799;DHT22;70933;44.692;37.776;2023-07-28T04:59:37;27.71;33.32
75799;DHT22;70933;44.692;37.776;2023-07-28T05:00:39;27.72;32.82
75799;DHT22;70933;44.692;37.776;2023-07-28T05:01:41;27.73;33.80
75799;DHT22;70933;44.692;37.776;2023-07-28T05:02:42;27.73;33.48
75799;DHT22;70933;44.692;37.776;2023-07-28T05:03:44;27.75;33.17
75799;DHT22;70933;44.692;37.776;2023-07-28T05:05:05;27.76;33.30
75799;DHT22;70933;44.692;37.776;2023-07-28T05:06:07;27.76;33.42
75799;DHT22;70933;44.692;37.776;2023-07-28T05:07:09;27.76;33.42
75799;DHT22;70933;44.692;37.776;2023-07-28T05:08:11;27.78;33.42
75799;DHT22;70933;44.692;37.776;2023-07-28T05:09:13;27.79;33.47
75799;DHT22;70933;44.692;37.776;2023-07-28T05:10:14;27.79;33.17
75799;DHT22;70933;44.692;37.776;2023-07-28T05:11:16;27.81;33.11
75799;DHT22;70933;44.692;37.776;2023-07-28T05:12:18;27.80;33.05
75799;DHT22;70933;44.692;37.776;2023-07-28T05:13:22;27.81;32.99
75799;DHT22;70933;44.692;37.776;2023-07-28T05:14:29;27.82;33.17
75799;DHT22;70933;44.692;37.776;2023-07-28T05:15:31;27.82;33.38
75799;DHT22;70933;44.692;37.776;2023-07-28T05:16:32;27.83;33.54
75799;DHT22;70933;44.692;37.776;2023-07-28T05:17:46;27.84;33.39
75799;DHT22;70933;44.692;37.776;2023-07-28T05:19:07;27.84;33.11
75799;DHT22;70933;44.692;37.776;2023-07-28T05:20:30;27.86;32.86
75799;DHT22;70933;44.692;37.776;2023-07-28T05:21:47;27.86;32.97
75799;DHT22;70933;44.692;37.776;2023-07-28T05:22:52;27.87;32.91
75799;DHT22;70933;44.692;37.776;2023-07-28T05:23:56;27.88;32.99
75799;DHT22;70933;44.692;37.776;2023-07-28T05:24:58;27.87;33.03
75799;DHT22;70933;44.692;37.776;2023-07-28T05:26:03;27.91;32.96
75799;DHT22;70933;44.692;37.776;2023-07-28T05:27:05;27.90;33.13
75799;DHT22;70933;44.692;37.776;2023-07-28T05:28:07;27.91;33.29
75799;DHT22;70933;44.692;37.776;2023-07-28T05:29:11;27.93;34.70
75799;DHT22;70933;44.692;37.776;2023-07-28T05:30:13;27.94;35.27
75799;DHT22;70933;44.692;37.776;2023-07-28T05:31:15;27.97;36.47
75799;DHT22;70933;44.692;37.776;2023-07-28T05:32:17;27.99;35.67
75799;DHT22;70933;44.692;37.776;2023-07-28T05:33:39;27.99;34.95
75799;DHT22;70933;44.692;37.776;2023-07-28T05:34:44;28.01;34.47
75799;DHT22;70933;44.692;37.776;2023-07-28T05:35:46;28.01;33.96
75799;DHT22;70933;44.692;37.776;2023-07-28T05:36:47;28.01;33.51
75799;DHT22;70933;44.692;37.776;2023-07-28T05:37:49;28.02;33.12
75799;DHT22;70933;44.692;37.776;2023-07-28T05:38:51;28.02;32.75
75799;DHT22;70933;44.692;37.776;2023-07-28T05:39:55;28.02;32.86
75799;DHT22;70933;44.692;37.776;2023-07-28T05:41:02;28.02;32.69
75799;DHT22;70933;44.692;37.776;2023-07-28T05:42:05;28.01;32.44
75799;DHT22;70933;44.692;37.776;2023-07-28T05:43:07;28.00;32.35
75799;DHT22;70933;44.692;37.776;2023-07-28T05:44:09;28.01;32.19
75799;DHT22;70933;44.692;37.776;2023-07-28T05:45:11;28.00;31.90
75799;DHT22;70933;44.692;37.776;2023-07-28T05:46:13;28.01;31.75
75799;DHT22;70933;44.692;37.776;2023-07-28T05:47:15;27.98;31.62
75799;DHT22;70933;44.692;37.776;2023-07-28T05:48:17;28.01;31.58
75799;DHT22;70933;44.692;37.776;2023-07-28T05:49:19;28.01;32.37
75799;DHT22;70933;44.692;37.776;2023-07-28T05:50:21;28.00;32.44
75799;DHT22;70933;44.692;37.776;2023-07-28T05:51:23;28.02;32.60
75799;DHT22;70933;44.692;37.776;2023-07-28T05:52:24;28.02;32.60
75799;DHT22;70933;44.692;37.776;2023-07-28T05:53:26;28.02;32.18
75799;DHT22;70933;44.692;37.776;2023-07-28T05:54:33;28.02;32.63
75799;DHT22;70933;44.692;37.776;2023-07-28T05:55:35;28.01;32.43
75799;DHT22;70933;44.692;37.776;2023-07-28T05:56:37;28.02;32.35
75799;DHT22;70933;44.692;37.776;2023-07-28T05:57:40;28.00;32.22
75799;DHT22;70933;44.692;37.776;2023-07-28T05:58:47;27.99;31.90
75799;DHT22;70933;44.692;37.776;2023-07-28T05:59:50;28.00;31.77
75799;DHT22;70933;44.692;37.776;2023-07-28T06:00:51;27.99;31.70
75799;DHT22;70933;44.692;37.776;2023-07-28T06:02:13;28.00;32.38
75799;DHT22;70933;44.692;37.776;2023-07-28T06:03:24;28.02;34.02
75799;DHT22;70933;44.692;37.776;2023-07-28T06:04:35;28.03;35.05
75799;DHT22;70933;44.692;37.776;2023-07-28T06:05:40;28.04;34.30
75799;DHT22;70933;44.692;37.776;2023-07-28T06:06:42;28.05;33.86
75799;DHT22;70933;44.692;37.776;2023-07-28T06:07:44;28.04;33.64
75799;DHT22;70933;44.692;37.776;2023-07-28T06:08:45;28.04;33.37
75799;DHT22;70933;44.692;37.776;2023-07-28T06:09:47;28.04;33.26
75799;DHT22;70933;44.692;37.776;2023-07-28T06:10:49;28.05;33.31
75799;DHT22;70933;44.692;37.776;2023-07-28T06:11:52;28.04;33.91
75799;DHT22;70933;44.692;37.776;2023-07-28T06:12:54;28.06;34.66
75799;DHT22;70933;44.692;37.776;2023-07-28T06:13:56;28.05;34.53
75799;DHT22;70933;44.692;37.776;2023-07-28T06:14:58;28.05;34.26
75799;DHT22;70933;44.692;37.776;2023-07-28T06:16:00;28.05;34.08
75799;DHT22;70933;44.692;37.776;2023-07-28T06:17:02;28.06;34.02
75799;DHT22;70933;44.692;37.776;2023-07-28T06:18:06;28.06;33.58
75799;DHT22;70933;44.692;37.776;2023-07-28T06:19:09;28.06;33.51
75799;DHT22;70933;44.692;37.776;2023-07-28T06:20:12;28.04;33.21
75799;DHT22;70933;44.692;37.776;2023-07-28T06:21:13;28.05;33.12
75799;DHT22;70933;44.692;37.776;2023-07-28T06:22:15;28.04;32.96
75799;DHT22;70933;44.692;37.776;2023-07-28T06:23:19;28.04;32.84
75799;DHT22;70933;44.692;37.776;2023-07-28T06:24:21;28.03;32.69
75799;DHT22;70933;44.692;37.776;2023-07-28T06:25:23;28.04;32.54
75799;DHT22;70933;44.692;37.776;2023-07-28T06:26:25;28.03;32.49
75799;DHT22;70933;44.692;37.776;2023-07-28T06:27:27;28.03;32.30
75799;DHT22;70933;44.692;37.776;2023-07-28T06:28:29;28.03;32.25
75799;DHT22;70933;44.692;37.776;2023-07-28T06:29:30;28.03;32.02
75799;DHT22;70933;44.692;37.776;2023-07-28T06:30:32;28.02;31.86
75799;DHT22;70933;44.692;37.776;2023-07-28T06:31:34;28.01;31.80
75799;DHT22;70933;44.692;37.776;2023-07-28T06:32:36;28.02;31.80
75799;DHT22;70933;44.692;37.776;2023-07-28T06:33:37;28.02;31.80
75799;DHT22;70933;44.692;37.776;2023-07-28T06:34:40;28.03;31.58
75799;DHT22;70933;44.692;37.776;2023-07-28T06:35:41;28.03;31.89
75799;DHT22;70933;44.692;37.776;2023-07-28T06:36:43;28.02;32.98
75799;DHT22;70933;44.692;37.776;2023-07-28T06:37:45;28.05;34.19
75799;DHT22;70933;44.692;37.776;2023-07-28T06:38:47;28.09;35.02